createdAt,value
2023-03-17T00:00:53.199Z,1.67
2023-03-17T00:03:26.862Z,1.60
2023-03-17T00:05:57.812Z,2.38
2023-03-17T00:08:35.978Z,1.75
2023-03-17T00:11:04.679Z,1.55
2023-03-17T00:13:35.596Z,1.65
2023-03-17T00:16:07.756Z,1.53
2023-03-17T00:18:35.906Z,1.88
2023-03-17T00:21:04.769Z,1.35
2023-03-17T00:23:33.129Z,1.90
2023-03-17T00:26:02.064Z,1.63
2023-03-17T00:28:30.067Z,1.63
2023-03-17T00:31:03.008Z,1.80
2023-03-17T00:33:33.425Z,1.70
2023-03-17T00:36:01.783Z,1.67
2023-03-17T00:38:32.533Z,1.60
2023-03-17T00:41:00.834Z,1.50
2023-03-17T00:43:30.728Z,2.00
2023-03-17T00:45:58.785Z,2.22
2023-03-17T00:48:29.323Z,1.77
2023-03-17T00:51:01.054Z,1.70
2023-03-17T00:53:30.186Z,1.85
2023-03-17T00:56:00.895Z,2.00
2023-03-17T00:58:31.380Z,1.85
2023-03-17T01:01:01.889Z,1.73
2023-03-17T01:03:33.161Z,1.55
2023-03-17T01:06:02.393Z,2.30
2023-03-17T01:08:31.651Z,1.95
2023-03-17T01:11:00.652Z,1.70
2023-03-17T01:13:29.601Z,1.80
2023-03-17T01:15:58.065Z,1.63
2023-03-17T01:18:26.435Z,1.92
2023-03-17T01:20:54.910Z,1.88
2023-03-17T01:23:24.671Z,1.75
2023-03-17T01:25:54.634Z,2.10
2023-03-17T01:28:23.633Z,1.83
2023-03-17T01:30:51.680Z,2.00
2023-03-17T01:33:19.619Z,2.10
2023-03-17T01:35:47.735Z,1.85
2023-03-17T01:38:16.082Z,1.80
2023-03-17T01:40:52.584Z,2.42
2023-03-17T01:43:26.138Z,2.33
2023-03-17T01:46:25.027Z,1.90
2023-03-17T01:49:33.419Z,2.03
2023-03-17T01:52:16.824Z,2.53
2023-03-17T01:54:56.497Z,2.20
2023-03-17T01:57:37.433Z,2.13
2023-03-17T02:00:11.621Z,2.60
2023-03-17T04:48:54.927Z,2.25
2023-03-17T04:51:23.189Z,2.53
2023-03-17T04:53:51.516Z,2.83
2023-03-17T04:56:19.743Z,2.40
2023-03-17T04:58:48.051Z,3.08
2023-03-17T05:05:24.597Z,2.88
2023-03-17T05:07:52.760Z,2.55
2023-03-17T05:10:21.281Z,2.85
2023-03-17T05:12:49.088Z,2.40
2023-03-17T05:15:17.159Z,2.63
2023-03-17T05:17:48.214Z,2.42
2023-03-17T05:20:16.671Z,2.47
2023-03-17T05:22:45.569Z,2.53
2023-03-17T05:25:13.460Z,2.00
2023-03-17T05:27:41.750Z,2.10
2023-03-17T05:30:10.354Z,2.78
2023-03-17T05:32:38.384Z,3.20
2023-03-17T05:35:06.577Z,2.45
2023-03-17T05:37:34.646Z,2.60
2023-03-17T05:40:03.301Z,2.42
2023-03-17T05:42:31.082Z,2.75
2023-03-17T05:44:58.850Z,2.38
2023-03-17T05:47:27.003Z,2.22
2023-03-17T05:49:55.044Z,2.60
2023-03-17T05:52:22.936Z,2.55
2023-03-17T05:54:52.525Z,2.38
2023-03-17T05:57:20.854Z,2.97
2023-03-17T05:59:49.165Z,2.55
2023-03-17T06:02:17.271Z,2.40
2023-03-17T06:04:45.115Z,2.63
2023-03-17T06:07:13.511Z,2.72
2023-03-17T06:09:41.895Z,2.55
2023-03-17T06:12:10.170Z,2.35
2023-03-17T06:14:38.258Z,2.50
2023-03-17T06:17:06.536Z,2.70
2023-03-17T06:19:34.876Z,2.40
2023-03-17T06:22:02.990Z,2.60
2023-03-17T06:24:30.904Z,2.75
2023-03-17T06:26:59.149Z,3.08
2023-03-17T06:29:27.680Z,2.65
2023-03-17T06:31:56.980Z,2.50
2023-03-17T06:36:56.221Z,2.50
2023-03-17T06:39:24.309Z,2.65
2023-03-17T06:41:52.255Z,2.45
2023-03-17T06:44:20.256Z,2.75
2023-03-17T06:46:48.748Z,2.80
2023-03-17T06:49:16.914Z,2.50
2023-03-17T06:51:45.105Z,2.53
2023-03-17T06:54:13.824Z,2.72
2023-03-17T06:56:41.808Z,2.30
2023-03-17T06:59:10.713Z,2.47
2023-03-17T07:01:39.540Z,1.98
2023-03-17T07:04:07.487Z,2.45
2023-03-17T07:06:35.546Z,2.78
2023-03-17T07:09:03.916Z,2.80
2023-03-17T07:11:32.810Z,2.75
2023-03-17T07:14:00.772Z,2.70
2023-03-17T07:16:29.159Z,3.03
2023-03-17T07:18:57.210Z,3.10
2023-03-17T07:21:25.091Z,2.28
2023-03-17T07:23:53.075Z,2.65
2023-03-17T07:26:21.039Z,2.80
2023-03-17T07:28:49.019Z,3.55
2023-03-17T07:31:17.166Z,2.30
2023-03-17T07:33:45.201Z,2.63
2023-03-17T07:36:13.534Z,2.47
2023-03-17T07:38:41.896Z,2.63
2023-03-17T07:41:11.096Z,2.55
2023-03-17T07:43:39.030Z,2.53
2023-03-17T07:46:07.632Z,2.58
2023-03-17T07:48:37.908Z,3.10
2023-03-17T07:51:05.948Z,2.60
2023-03-17T07:53:33.725Z,2.72
2023-03-17T07:56:01.671Z,2.20
2023-03-17T07:58:30.111Z,2.35
2023-03-17T08:00:58.690Z,2.45
2023-03-17T08:03:26.657Z,2.22
2023-03-17T08:06:00.137Z,2.83
2023-03-17T08:08:29.154Z,2.42
2023-03-17T08:11:03.929Z,2.17
2023-03-17T08:13:32.884Z,2.35
2023-03-17T08:16:01.068Z,2.58
2023-03-17T08:18:29.131Z,2.70
2023-03-17T08:20:57.371Z,2.50
2023-03-17T08:23:25.867Z,2.15
2023-03-17T08:26:01.909Z,2.35
2023-03-17T08:28:31.080Z,2.47
2023-03-17T08:31:17.458Z,2.20
2023-03-17T08:33:48.907Z,2.40
2023-03-17T08:36:17.683Z,2.20
2023-03-17T08:38:47.195Z,2.67
2023-03-17T08:41:18.507Z,2.55
2023-03-17T08:43:47.455Z,2.30
2023-03-17T08:46:20.060Z,2.20
2023-03-17T08:48:49.410Z,1.83
2023-03-17T08:51:19.447Z,2.15
2023-03-17T08:53:50.714Z,1.83
2023-03-17T08:56:18.688Z,2.28
2023-03-17T08:58:48.129Z,2.08
2023-03-17T09:01:17.104Z,1.90
2023-03-17T09:03:45.792Z,1.90
2023-03-17T09:06:14.295Z,1.63
2023-03-17T09:08:45.279Z,1.90
2023-03-17T09:11:18.196Z,1.60
2023-03-17T09:13:47.721Z,1.40
2023-03-17T09:16:17.558Z,1.90
2023-03-17T09:18:46.668Z,1.63
2023-03-17T09:21:15.924Z,1.88
2023-03-17T09:23:44.509Z,1.90
2023-03-17T09:26:13.364Z,1.85
2023-03-17T09:28:42.344Z,1.75
2023-03-17T09:31:14.263Z,1.45
2023-03-17T09:33:42.746Z,1.77
2023-03-17T09:36:11.347Z,1.50
2023-03-17T09:38:39.664Z,1.88
2023-03-17T09:41:08.107Z,1.67
2023-03-17T09:43:48.761Z,1.58
2023-03-17T09:47:01.327Z,1.80
2023-03-17T09:49:53.018Z,1.95
2023-03-17T09:52:27.864Z,1.60
2023-03-17T09:54:56.461Z,1.50
2023-03-17T09:57:29.877Z,1.23
2023-03-17T10:00:06.579Z,1.58
2023-03-17T10:02:40.273Z,1.52
2023-03-17T10:05:30.393Z,1.70
2023-03-17T10:08:31.328Z,1.70
2023-03-17T10:11:05.942Z,1.48
2023-03-17T10:13:47.769Z,1.63
2023-03-17T10:16:21.023Z,1.30
2023-03-17T10:19:13.558Z,1.05
2023-03-17T10:21:50.161Z,1.35
2023-03-17T10:24:18.303Z,1.50
2023-03-17T10:26:58.210Z,1.58
2023-03-17T10:29:26.197Z,1.33
2023-03-17T10:31:58.541Z,1.30
2023-03-17T10:34:33.001Z,1.52
2023-03-17T10:37:08.154Z,1.30
2023-03-17T10:39:54.780Z,1.48
2023-03-17T10:42:26.492Z,1.20
2023-03-17T10:45:25.262Z,1.80
2023-03-17T10:47:54.234Z,1.92
2023-03-17T10:50:32.478Z,1.23
2023-03-17T10:53:22.111Z,1.35
2023-03-17T10:55:52.379Z,1.45
2023-03-17T10:58:33.798Z,1.52
2023-03-17T11:01:20.879Z,1.80
2023-03-17T11:03:49.147Z,1.38
2023-03-17T11:06:29.456Z,1.20
2023-03-17T11:08:57.416Z,1.40
2023-03-17T11:11:34.994Z,1.30
2023-03-17T11:14:04.622Z,1.65
2023-03-17T11:16:36.681Z,1.73
2023-03-17T11:19:10.321Z,1.20
2023-03-17T11:22:14.774Z,1.33
2023-03-17T11:24:54.426Z,1.23
2023-03-17T11:27:39.106Z,1.30
2023-03-17T11:30:20.039Z,1.40
2023-03-17T11:32:57.285Z,1.40
2023-03-17T11:35:36.023Z,1.30
2023-03-17T11:38:29.264Z,1.58
2023-03-17T11:41:18.320Z,1.17
2023-03-17T11:43:55.094Z,1.40
2023-03-17T11:46:29.032Z,1.42
2023-03-17T11:49:15.990Z,1.42
2023-03-17T11:52:03.683Z,1.10
2023-03-17T11:54:47.897Z,1.20
2023-03-17T11:57:40.873Z,0.90
2023-03-17T12:00:31.166Z,1.30
2023-03-17T12:05:30.300Z,1.30
2023-03-17T12:08:00.181Z,1.35
2023-03-17T12:10:46.810Z,1.55
2023-03-17T12:13:24.227Z,1.30
2023-03-17T12:16:01.144Z,1.58
2023-03-17T12:18:33.046Z,1.17
2023-03-17T12:21:33.156Z,0.80
2023-03-17T12:24:23.077Z,1.02
2023-03-17T12:27:03.789Z,1.20
2023-03-17T12:29:56.072Z,1.00
2023-03-17T12:32:29.747Z,1.20
2023-03-17T12:34:59.993Z,1.00
2023-03-17T12:37:30.345Z,0.98
2023-03-17T12:42:53.014Z,0.80
2023-03-17T12:45:55.141Z,1.10
2023-03-17T12:48:53.568Z,1.20
2023-03-17T12:51:40.367Z,0.77
2023-03-17T12:54:36.120Z,0.88
2023-03-17T12:57:07.171Z,1.05
2023-03-17T12:59:37.681Z,0.90
2023-03-17T13:02:18.990Z,1.20
2023-03-17T13:05:01.156Z,0.98
2023-03-17T13:07:38.172Z,1.13
2023-03-17T13:10:13.967Z,0.90
2023-03-17T13:12:44.768Z,0.90
2023-03-17T13:15:38.789Z,0.60
2023-03-17T13:18:16.653Z,0.52
2023-03-17T13:21:00.545Z,0.60
2023-03-17T13:23:48.225Z,0.47
2023-03-17T13:26:21.438Z,0.50
2023-03-17T13:28:51.731Z,0.68
2023-03-17T13:31:31.652Z,0.50
2023-03-17T13:34:18.077Z,0.57
2023-03-17T13:36:49.203Z,0.63
2023-03-17T13:39:49.995Z,0.70
2023-03-17T13:42:33.318Z,0.40
2023-03-17T13:45:01.436Z,0.60
2023-03-17T13:47:35.292Z,0.63
2023-03-17T13:50:25.684Z,0.93
2023-03-17T13:53:10.575Z,0.77
2023-03-17T13:55:41.330Z,0.50
2023-03-17T13:58:11.421Z,0.50
2023-03-17T14:00:49.387Z,0.60
2023-03-17T14:03:23.643Z,0.60
2023-03-17T14:05:53.116Z,0.68
2023-03-17T14:08:35.879Z,0.40
2023-03-17T14:11:16.245Z,0.52
2023-03-17T14:14:02.767Z,0.43
2023-03-17T14:17:02.449Z,0.43
2023-03-17T14:19:31.309Z,0.50
2023-03-17T14:22:25.683Z,0.60
2023-03-17T14:24:59.697Z,0.50
2023-03-17T14:27:28.876Z,0.90
2023-03-17T14:29:56.919Z,1.05
2023-03-17T14:32:25.949Z,0.80
2023-03-17T14:35:00.742Z,0.55
2023-03-17T14:37:29.421Z,0.73
2023-03-17T14:39:59.476Z,0.65
2023-03-17T14:42:30.082Z,0.38
2023-03-17T14:45:19.167Z,1.00
2023-03-17T14:47:47.512Z,0.57
2023-03-17T14:50:31.399Z,0.80
2023-03-17T14:53:00.663Z,0.90
2023-03-17T14:55:38.438Z,0.77
2023-03-17T14:58:33.232Z,0.70
2023-03-17T15:01:16.569Z,1.00
2023-03-17T15:04:00.945Z,0.73
2023-03-17T15:06:37.172Z,0.95
2023-03-17T15:09:26.287Z,0.90
2023-03-17T15:12:05.149Z,0.90
2023-03-17T15:14:35.131Z,0.80
2023-03-17T15:17:05.364Z,1.00
2023-03-17T15:19:42.729Z,0.90
2023-03-17T15:22:27.644Z,1.02
2023-03-17T15:25:23.047Z,0.70
2023-03-17T15:27:51.636Z,0.88
2023-03-17T15:30:21.226Z,1.20
2023-03-17T15:32:59.005Z,0.90
2023-03-17T15:35:27.644Z,1.00
2023-03-17T15:37:56.233Z,0.80
2023-03-17T15:40:24.525Z,1.25
2023-03-17T15:42:52.594Z,1.08
2023-03-17T15:45:20.684Z,1.92
2023-03-17T15:47:48.617Z,1.25
2023-03-17T15:50:22.124Z,1.05
2023-03-17T15:52:53.849Z,0.85
2023-03-17T15:55:29.670Z,1.20
2023-03-17T15:57:58.835Z,0.73
2023-03-17T16:00:30.234Z,1.00
2023-03-17T16:03:03.077Z,1.10
2023-03-17T16:05:33.307Z,1.65
2023-03-17T16:08:01.724Z,1.25
2023-03-17T16:10:32.207Z,1.35
2023-03-17T16:13:00.453Z,1.33
2023-03-17T16:15:33.552Z,1.42
2023-03-17T16:18:08.384Z,1.10
2023-03-17T16:20:45.097Z,1.00
2023-03-17T16:23:27.766Z,0.90
2023-03-17T16:26:11.702Z,1.20
2023-03-17T16:28:43.103Z,1.23
2023-03-17T16:31:23.491Z,1.27
2023-03-17T16:33:52.986Z,1.35
2023-03-17T16:36:22.648Z,1.30
2023-03-17T16:38:51.248Z,1.50
2023-03-17T16:41:25.660Z,1.20
2023-03-17T16:43:59.622Z,1.23
2023-03-17T16:46:28.715Z,1.40
2023-03-17T16:48:56.656Z,1.35
2023-03-17T16:51:25.270Z,1.33
2023-03-17T16:53:52.991Z,1.40
2023-03-17T16:56:22.227Z,1.60
2023-03-17T16:58:50.472Z,1.30
2023-03-17T17:01:26.639Z,1.55
2023-03-17T17:03:55.313Z,1.92
2023-03-17T17:06:24.396Z,1.38
2023-03-17T17:08:52.820Z,1.40
2023-03-17T17:11:21.418Z,1.45
2023-03-17T17:13:52.239Z,1.48
2023-03-17T17:16:25.776Z,1.42
2023-03-17T17:18:54.134Z,1.30
2023-03-17T17:21:24.703Z,1.63
2023-03-17T17:23:53.382Z,1.50
2023-03-17T17:26:22.414Z,1.40
2023-03-17T17:28:51.431Z,1.83
2023-03-17T17:31:19.641Z,1.45
2023-03-17T17:33:48.077Z,1.42
2023-03-17T17:36:17.250Z,1.20
2023-03-17T17:38:45.719Z,1.50
2023-03-17T17:41:14.441Z,1.52
2023-03-17T17:43:42.709Z,1.60
2023-03-17T17:46:19.132Z,1.80
2023-03-17T17:48:47.495Z,1.75
2023-03-17T17:51:15.952Z,1.48
2023-03-17T17:53:44.268Z,1.30
2023-03-17T17:56:17.046Z,1.63
2023-03-17T17:58:45.800Z,1.50
2023-03-17T18:01:17.142Z,1.83
2023-03-17T18:03:45.287Z,1.92
2023-03-17T18:06:13.592Z,1.35
2023-03-17T18:08:43.914Z,2.30
2023-03-17T18:11:12.208Z,1.55
2023-03-17T18:13:41.125Z,1.70
2023-03-17T18:16:10.594Z,1.38
2023-03-17T18:18:41.240Z,1.45
2023-03-17T18:21:09.656Z,1.90
2023-03-17T18:23:37.704Z,1.88
2023-03-17T18:26:09.658Z,1.50
2023-03-17T18:28:37.973Z,1.75
2023-03-17T18:31:11.051Z,1.70
2023-03-17T18:33:41.082Z,1.58
2023-03-17T18:36:09.801Z,1.40
2023-03-17T18:38:37.874Z,1.90
2023-03-17T18:41:09.140Z,1.95
2023-03-17T18:43:37.598Z,1.77
2023-03-17T18:46:05.686Z,2.00
2023-03-17T18:48:34.086Z,1.80
2023-03-17T18:51:02.164Z,2.00
2023-03-17T18:53:31.241Z,1.88
2023-03-17T18:55:59.873Z,1.88
2023-03-17T18:58:28.309Z,1.63
2023-03-17T19:01:00.857Z,2.15
2023-03-17T19:03:29.646Z,2.10
2023-03-17T19:05:58.306Z,2.13
2023-03-17T19:08:26.928Z,2.28
2023-03-17T19:10:54.794Z,1.98
2023-03-17T19:13:22.642Z,1.98
2023-03-17T19:15:51.034Z,1.85
2023-03-17T19:18:19.045Z,2.00
2023-03-17T19:20:47.148Z,2.10
2023-03-17T19:23:15.686Z,2.42
2023-03-17T19:25:43.794Z,2.22
2023-03-17T19:28:11.776Z,2.10
2023-03-17T19:30:39.824Z,1.80
2023-03-17T19:33:08.914Z,2.03
2023-03-17T19:35:37.237Z,1.95
2023-03-17T19:38:05.695Z,2.78
2023-03-17T19:40:34.035Z,2.08
2023-03-17T19:43:02.462Z,2.00
2023-03-17T19:45:33.273Z,2.13
2023-03-17T19:48:01.218Z,2.10
2023-03-17T19:50:30.846Z,1.80
2023-03-17T19:52:59.041Z,2.05
2023-03-17T19:55:27.939Z,1.90
2023-03-17T19:57:56.354Z,2.85
2023-03-17T20:00:25.009Z,1.88
2023-03-17T20:02:53.147Z,1.77
2023-03-17T20:05:21.144Z,2.13
2023-03-17T20:07:49.235Z,1.90
2023-03-17T20:10:17.738Z,1.83
2023-03-17T20:12:49.100Z,2.10
2023-03-17T20:15:16.989Z,2.22
2023-03-17T20:17:45.221Z,2.28
2023-03-17T20:20:14.696Z,2.00
2023-03-17T20:22:43.840Z,2.13
2023-03-17T20:25:12.578Z,1.88
2023-03-17T20:27:40.744Z,2.95
2023-03-17T20:30:09.596Z,2.10
2023-03-17T20:32:38.224Z,2.65
2023-03-17T20:35:08.071Z,2.50
2023-03-17T20:37:37.124Z,2.33
2023-03-17T20:40:05.680Z,1.83
2023-03-17T20:42:33.867Z,2.00
2023-03-17T20:45:03.519Z,1.92
2023-03-17T20:47:31.968Z,2.15
2023-03-17T20:50:00.768Z,2.45
2023-03-17T20:52:30.267Z,2.00
2023-03-17T20:55:00.298Z,1.77
2023-03-17T20:57:29.101Z,1.90
2023-03-17T20:59:58.383Z,2.45
2023-03-17T21:02:26.694Z,1.98
2023-03-17T21:04:54.611Z,2.30
2023-03-17T21:07:23.490Z,1.75
2023-03-17T21:09:52.067Z,1.80
2023-03-17T21:12:20.823Z,3.55
2023-03-17T21:14:49.743Z,1.88
2023-03-17T21:17:18.322Z,1.70
2023-03-17T21:19:46.643Z,2.00
2023-03-17T21:22:14.612Z,1.85
2023-03-17T21:24:42.590Z,1.73
2023-03-17T21:27:12.610Z,1.80
2023-03-17T21:29:42.766Z,2.08
2023-03-17T21:32:10.904Z,2.00
2023-03-17T21:34:38.829Z,2.13
2023-03-17T21:37:06.757Z,2.15
2023-03-17T21:39:36.639Z,2.03
2023-03-17T21:42:05.438Z,1.65
2023-03-17T21:44:33.442Z,2.08
2023-03-17T21:47:03.295Z,2.17
2023-03-17T21:49:31.501Z,1.90
2023-03-17T21:51:59.587Z,1.98
2023-03-17T21:54:28.745Z,2.10
2023-03-17T21:56:57.390Z,1.63
2023-03-17T21:59:30.988Z,1.80
2023-03-17T22:01:59.944Z,2.03
2023-03-17T22:04:29.603Z,1.80
2023-03-17T22:06:59.036Z,1.52
2023-03-17T22:09:27.908Z,1.83
2023-03-17T22:11:56.083Z,1.70
2023-03-17T22:14:24.269Z,1.60
2023-03-17T22:16:55.590Z,1.48
2023-03-17T22:19:23.984Z,1.90
2023-03-17T22:21:52.002Z,1.48
2023-03-17T22:24:20.074Z,1.70
2023-03-17T22:26:49.158Z,1.55
2023-03-17T22:29:17.093Z,1.40
2023-03-17T22:31:45.847Z,1.50
2023-03-17T22:34:14.167Z,1.83
2023-03-17T22:36:42.285Z,2.13
2023-03-17T22:39:11.126Z,1.70
2023-03-17T22:41:39.438Z,1.90
2023-03-17T22:44:09.281Z,1.83
2023-03-17T22:46:38.870Z,1.88
2023-03-17T22:49:08.039Z,1.65
2023-03-17T22:51:36.828Z,1.48
2023-03-17T22:54:05.314Z,1.30
2023-03-17T22:56:34.299Z,1.45
2023-03-17T22:59:02.345Z,1.73
2023-03-17T23:01:30.402Z,1.50
2023-03-17T23:03:58.399Z,1.88
2023-03-17T23:06:26.376Z,1.55
2023-03-17T23:08:54.358Z,1.67
2023-03-17T23:11:25.745Z,1.80
2023-03-17T23:13:54.991Z,1.50
2023-03-17T23:16:23.139Z,1.60
2023-03-17T23:18:51.888Z,1.70
2023-03-17T23:21:23.707Z,1.52
2023-03-17T23:26:19.562Z,1.52
2023-03-17T23:28:47.988Z,1.50
2023-03-17T23:31:19.427Z,1.35
2023-03-17T23:36:17.299Z,1.40
2023-03-17T23:38:45.804Z,1.48
2023-03-17T23:41:15.232Z,1.10
2023-03-17T23:43:44.252Z,0.88
2023-03-17T23:46:14.147Z,2.00
2023-03-17T23:48:43.109Z,1.45
2023-03-17T23:51:12.840Z,1.10
2023-03-17T23:53:41.934Z,1.00
2023-03-17T23:56:11.623Z,1.02
2023-03-17T23:58:41.741Z,1.27
